Archival Weather

Chicago O'Hare International

Chicago, Illinois (KORD)

Report from: Sunday, March 6, 2022 12:51 AM CST
Current time: Saturday, February 4, 2023 10:18 PM CST

Current weather
Weather history
Weather forecast

Temperature11.7°C (53.1°F)
Dew point9.4°C (48.9°F)
Winds 10 kts (5.1 m/s, 11.5 mph) South-Southwest (200°)
Visibility10 mi. (16.1 km)
Clouds Scattered clouds 7,000 ft. (2,134 m)
Ceiling: Broken clouds 15,000 ft. (4,572 m)
Broken clouds 25,000 ft. (7,620 m)
Altimeter29.62 in.Hg (1003 mB)
Precipitiation0.01 in. (0 mm)
Precip. events Rain ended 11:58 PM
Thunderstorm ended 11:58 PM
Relative humidity86 %
Density altitude122 ft. (37 m)
Sea-level pressure100.3 kPa (1003 mB, 29.61 in.Hg)
Remarks System requires maintenance
Automated weather observing station with precipitation discriminator
Flight conditions Visual Meteorological Conditions
Raw dataKORD 060651Z 20010KT 10SM SCT070 BKN150 BKN250 12/09 A2962 RMK AO2 RAE0558 TSE0558 SLP028 P0001 T01170094 $
An unhandled exception has occurred. See browser dev tools for details. Reload 🗙